Time;durP1;ratioP1;P1;durP2;ratioP2;P2;SDS_P1;SDS_P2;PMS_P1;PMS_P2;Temp;Humidity;BMP_temperature;BMP_pressure;BME280_temperature;BME280_humidity;BME280_pressure;Samples;Min_cycle;Max_cycle;Signal;HPM_P1;HPM_P2
2023/03/31 00:00:29;;;;;;;;;;;;;;;16.40;43.96;99800.28;4958907;28;102130;-66
2023/03/31 00:02:57;;;;;;;;;;;;;;;16.41;44.12;99803.78;4969966;28;98348;-62
2023/03/31 00:05:23;;;;;;;;;;;;;;;16.40;43.87;99800.28;4987376;27;98155;-66
2023/03/31 00:08:00;;;;;;;;;;;;;;;16.41;44.08;99803.78;4959256;28;108843;-62
2023/03/31 00:10:30;;;;;;;;;;;;;;;16.41;43.91;99795.63;4958439;28;99199;-61
2023/03/31 00:12:57;;;;;;;;;;;;;;;16.41;44.04;99803.78;4958926;28;99136;-62
2023/03/31 00:15:22;;;;;;;;;;;;;;;16.43;44.01;99796.91;4958414;28;118287;-65
2023/03/31 00:17:48;;;;;;;;;;;;;;;16.50;44.07;99792.88;4954299;28;114546;-62
2023/03/31 00:20:14;;;;;;;;;;;;;;;16.57;43.94;99790.47;4960909;28;129003;-62
2023/03/31 00:22:46;;;;;;;;;;;;;;;16.64;43.92;99785.34;4967934;28;126026;-62
2023/03/31 00:25:13;;;;;;;;;;;;;;;16.71;43.95;99790.31;4957323;28;98163;-61
2023/03/31 00:27:43;;;;;;;;;;;;;;;16.74;44.00;99774.16;4958858;28;97743;-67
2023/03/31 00:30:09;;;;;;;;;;;;;;;16.78;43.89;99774.28;4955695;28;98743;-66
2023/03/31 00:32:35;;;;;;;;;;;;;;;16.81;43.88;99776.34;4957736;28;99324;-63
2023/03/31 00:35:01;;;;;;;;;;;;;;;16.84;44.00;99773.00;4957604;28;99499;-65
2023/03/31 00:37:28;;;;;;;;;;;;;;;16.86;43.90;99782.44;4958048;28;117508;-64
2023/03/31 00:39:54;;;;;;;;;;;;;;;16.87;44.09;99781.31;4956132;28;98953;-66
2023/03/31 00:42:20;;;;;;;;;;;;;;;16.89;43.94;99779.03;4964345;28;111225;-67
2023/03/31 00:45:15;;;;;;;;;;;;;;;16.91;43.95;99779.53;4959856;28;98224;-62
2023/03/31 00:47:55;;;;;;;;;;;;;;;16.93;43.94;99771.03;4959892;28;98079;-62
2023/03/31 00:50:27;;;;;;;;;;;;;;;16.94;43.94;99772.66;4958894;28;123975;-65
2023/03/31 00:53:07;;;;;;;;;;;;;;;16.95;43.99;99757.91;4962827;28;98158;-66
2023/03/31 00:55:35;;;;;;;;;;;;;;;16.96;44.10;99751.31;4956356;28;98002;-62
2023/03/31 00:58:03;;;;;;;;;;;;;;;16.96;44.06;99750.53;4973390;28;98010;-62
2023/03/31 01:00:29;;;;;;;;;;;;;;;16.96;44.12;99745.09;4967932;28;98414;-65
2023/03/31 01:02:57;;;;;;;;;;;;;;;16.95;44.05;99749.75;4990651;27;98966;-62
2023/03/31 01:05:43;;;;;;;;;;;;;;;16.96;44.07;99739.66;4970963;28;98682;-62
2023/03/31 01:08:09;;;;;;;;;;;;;;;16.95;44.00;99736.13;4942897;28;98022;-62
2023/03/31 01:10:40;;;;;;;;;;;;;;;16.92;43.99;99734.84;4961445;28;98223;-61
2023/03/31 01:13:09;;;;;;;;;;;;;;;16.94;44.12;99737.25;4974738;28;98494;-62
2023/03/31 01:15:36;;;;;;;;;;;;;;;16.93;44.19;99727.47;4975928;27;121277;-62
2023/03/31 01:18:03;;;;;;;;;;;;;;;16.93;44.01;99722.81;4968128;28;99427;-66
2023/03/31 01:20:55;;;;;;;;;;;;;;;16.93;44.15;99716.59;4989057;27;98159;-65
2023/03/31 01:23:44;;;;;;;;;;;;;;;16.92;44.00;99712.28;4986763;27;97845;-67
2023/03/31 01:26:26;;;;;;;;;;;;;;;16.90;44.03;99709.09;4951129;28;98619;-66
2023/03/31 01:29:04;;;;;;;;;;;;;;;16.90;44.08;99707.19;4989135;27;114278;-66
2023/03/31 01:31:56;;;;;;;;;;;;;;;16.89;44.01;99708.28;4960747;28;104041;-61
2023/03/31 01:34:41;;;;;;;;;;;;;;;16.88;44.00;99698.53;4990624;27;100068;-62
2023/03/31 01:37:20;;;;;;;;;;;;;;;16.88;44.06;99695.00;4972939;28;98333;-62
2023/03/31 01:40:00;;;;;;;;;;;;;;;16.85;44.05;99685.56;4972778;28;99786;-67
2023/03/31 01:42:35;;;;;;;;;;;;;;;16.86;44.04;99691.84;4955953;28;122260;-66
2023/03/31 01:45:11;;;;;;;;;;;;;;;16.85;43.86;99687.50;4962851;28;98350;-63
2023/03/31 01:47:44;;;;;;;;;;;;;;;16.84;44.05;99685.91;4962574;28;98118;-66
2023/03/31 01:50:29;;;;;;;;;;;;;;;16.83;44.14;99689.75;4987365;27;97967;-62
2023/03/31 01:53:00;;;;;;;;;;;;;;;16.82;44.13;99678.06;4959612;28;98217;-62
2023/03/31 01:55:37;;;;;;;;;;;;;;;16.82;43.85;99679.97;4990861;27;125484;-62
2023/03/31 01:58:19;;;;;;;;;;;;;;;16.81;44.08;99671.00;4988457;27;98213;-67
2023/03/31 02:00:50;;;;;;;;;;;;;;;16.80;44.08;99671.34;4984986;27;113219;-62
2023/03/31 02:03:45;;;;;;;;;;;;;;;16.80;44.09;99666.72;4961754;28;99081;-66
2023/03/31 02:06:18;;;;;;;;;;;;;;;16.79;44.01;99665.13;4954480;28;120657;-61
2023/03/31 02:08:47;;;;;;;;;;;;;;;16.78;43.97;99660.81;4925348;27;1822931;-66
2023/03/31 02:11:13;;;;;;;;;;;;;;;16.78;44.11;99657.25;4968591;28;100166;-67
2023/03/31 02:13:40;;;;;;;;;;;;;;;16.78;43.94;99649.09;4989569;27;128068;-62
2023/03/31 02:16:08;;;;;;;;;;;;;;;16.77;44.05;99656.47;4957133;28;98575;-67
2023/03/31 02:18:37;;;;;;;;;;;;;;;16.77;44.02;99650.25;4943307;28;112354;-67
2023/03/31 02:21:03;;;;;;;;;;;;;;;16.76;44.01;99654.88;4963710;28;97723;-62
2023/03/31 02:23:30;;;;;;;;;;;;;;;16.76;44.13;99643.22;4991093;27;98437;-62
2023/03/31 02:26:17;;;;;;;;;;;;;;;16.76;44.13;99645.94;4959915;28;98785;-62
2023/03/31 02:28:43;;;;;;;;;;;;;;;16.75;44.17;99636.19;4954894;28;125849;-66
2023/03/31 02:31:41;;;;;;;;;;;;;;;16.73;44.00;99625.59;4994039;27;118531;-62
2023/03/31 02:34:07;;;;;;;;;;;;;;;16.72;44.02;99620.47;4985696;27;98436;-62
2023/03/31 02:36:33;;;;;;;;;;;;;;;16.71;44.12;99619.69;4959301;28;98632;-66
2023/03/31 02:39:03;;;;;;;;;;;;;;;16.69;44.09;99622.72;4987062;27;125265;-65
2023/03/31 02:41:29;;;;;;;;;;;;;;;16.69;44.10;99624.63;4930996;28;97865;-67
2023/03/31 02:43:55;;;;;;;;;;;;;;;16.68;44.02;99618.41;4963340;28;98623;-66
2023/03/31 02:46:21;;;;;;;;;;;;;;;16.66;44.16;99617.13;4960457;28;129937;-62
2023/03/31 02:48:49;;;;;;;;;;;;;;;16.66;44.02;99608.97;4961206;28;126753;-66
2023/03/31 02:51:27;;;;;;;;;;;;;;;16.63;44.05;99607.72;4954044;28;116106;-62
2023/03/31 02:54:18;;;;;;;;;;;;;;;16.61;44.22;99604.50;4954188;28;98735;-63
2023/03/31 02:57:14;;;;;;;;;;;;;;;16.60;44.23;99602.91;4975845;28;114942;-62
2023/03/31 03:00:06;;;;;;;;;;;;;;;16.58;44.06;99607.88;4960309;28;98187;-62
2023/03/31 03:03:13;;;;;;;;;;;;;;;16.56;44.13;99604.69;4960621;28;98290;-62
2023/03/31 03:06:19;;;;;;;;;;;;;;;16.55;44.12;99596.88;4958175;28;100600;-66
2023/03/31 03:09:06;;;;;;;;;;;;;;;16.54;44.18;99587.09;4966716;27;98412;-62
2023/03/31 03:11:45;;;;;;;;;;;;;;;16.52;44.16;99586.66;4971651;28;98287;-62
2023/03/31 03:14:22;;;;;;;;;;;;;;;16.51;43.91;99590.50;4989640;27;98971;-61
2023/03/31 03:16:52;;;;;;;;;;;;;;;16.51;44.13;99596.72;4977754;28;98692;-62
2023/03/31 03:19:22;;;;;;;;;;;;;;;16.50;44.07;99597.84;4969868;27;102415;-67
2023/03/31 03:21:48;;;;;;;;;;;;;;;16.50;44.13;99586.97;4941798;28;98041;-62
2023/03/31 03:24:15;;;;;;;;;;;;;;;16.50;44.07;99584.25;4958135;28;98501;-62
2023/03/31 03:26:41;;;;;;;;;;;;;;;16.49;44.08;99585.38;4958797;28;98610;-62
2023/03/31 03:29:07;;;;;;;;;;;;;;;16.50;44.27;99580.72;4964320;28;124782;-62
2023/03/31 03:31:33;;;;;;;;;;;;;;;16.50;44.12;99581.50;4961603;28;126307;-62
2023/03/31 03:33:59;;;;;;;;;;;;;;;16.50;44.14;99573.34;4960816;28;97957;-66
2023/03/31 03:36:25;;;;;;;;;;;;;;;16.50;44.04;99567.13;4961269;28;98905;-62
2023/03/31 03:38:51;;;;;;;;;;;;;;;16.49;44.16;99571.78;4963607;28;127552;-66
2023/03/31 03:41:17;;;;;;;;;;;;;;;16.49;44.22;99566.31;4957021;28;127265;-65
2023/03/31 03:43:43;;;;;;;;;;;;;;;16.50;44.08;99558.97;4959536;28;97842;-62
2023/03/31 03:46:09;;;;;;;;;;;;;;;16.50;44.10;99558.97;4958544;28;127088;-62
2023/03/31 03:48:35;;;;;;;;;;;;;;;16.50;44.00;99550.81;4973768;28;99026;-66
2023/03/31 03:51:01;;;;;;;;;;;;;;;16.50;44.06;99548.09;4959622;28;123697;-62
2023/03/31 03:53:27;;;;;;;;;;;;;;;16.50;43.97;99545.38;4967613;28;117549;-62
2023/03/31 03:55:53;;;;;;;;;;;;;;;16.49;44.14;99541.84;4965697;28;128822;-62
2023/03/31 03:58:19;;;;;;;;;;;;;;;16.47;44.06;99546.84;4967045;28;98414;-66
2023/03/31 04:00:46;;;;;;;;;;;;;;;16.49;44.08;99541.06;4965140;28;98135;-62
2023/03/31 04:03:12;;;;;;;;;;;;;;;16.47;44.05;99541.41;4965141;28;98111;-62
2023/03/31 04:05:38;;;;;;;;;;;;;;;16.47;44.18;99535.16;4963500;28;128118;-67
2023/03/31 04:08:05;;;;;;;;;;;;;;;16.47;44.16;99541.41;4973276;28;127865;-62
2023/03/31 04:10:30;;;;;;;;;;;;;;;16.45;44.14;99533.53;4967243;28;99200;-62
2023/03/31 04:12:56;;;;;;;;;;;;;;;16.44;44.24;99523.81;4961913;28;118334;-66
2023/03/31 04:15:22;;;;;;;;;;;;;;;16.45;44.22;99528.09;4964253;28;126885;-66
2023/03/31 04:17:49;;;;;;;;;;;;;;;16.44;44.10;99517.56;4968206;28;100687;-65
2023/03/31 04:20:16;;;;;;;;;;;;;;;16.43;44.21;99522.22;4967671;28;98064;-63
2023/03/31 04:22:45;;;;;;;;;;;;;;;16.43;44.17;99515.97;4951646;28;101991;-64
2023/03/31 04:25:15;;;;;;;;;;;;;;;16.42;44.04;99512.44;4968406;28;98427;-67
2023/03/31 04:27:54;;;;;;;;;;;;;;;16.43;44.21;99507.81;4971108;28;97859;-63
2023/03/31 04:30:24;;;;;;;;;;;;;;;16.42;44.11;99500.78;4967795;28;98569;-63
2023/03/31 04:32:50;;;;;;;;;;;;;;;16.42;44.23;99506.22;4969823;28;97833;-62
2023/03/31 04:35:20;;;;;;;;;;;;;;;16.43;44.10;99514.06;4965079;28;98462;-66
2023/03/31 04:37:49;;;;;;;;;;;;;;;16.43;44.12;99497.75;4961147;28;104201;-67
2023/03/31 04:40:16;;;;;;;;;;;;;;;16.42;44.00;99493.41;4959049;28;98130;-67
2023/03/31 04:42:42;;;;;;;;;;;;;;;16.44;44.15;99498.53;4965621;28;97639;-66
2023/03/31 04:45:09;;;;;;;;;;;;;;;16.43;44.08;99483.34;4972975;28;113019;-63
2023/03/31 04:47:36;;;;;;;;;;;;;;;16.44;44.18;99493.09;4959243;28;97886;-67
2023/03/31 04:50:02;;;;;;;;;;;;;;;16.45;44.21;99487.31;4962179;28;98059;-67
2023/03/31 04:52:27;;;;;;;;;;;;;;;16.45;44.02;99489.25;4963959;28;98102;-66
2023/03/31 04:54:53;;;;;;;;;;;;;;;16.46;44.15;99485.38;4963822;28;127631;-68
2023/03/31 04:57:20;;;;;;;;;;;;;;;16.47;44.10;99472.59;4960921;28;129172;-63
2023/03/31 04:59:46;;;;;;;;;;;;;;;16.49;44.09;99467.63;4963374;28;98654;-63
2023/03/31 05:02:12;;;;;;;;;;;;;;;16.49;43.86;99468.41;4990869;27;98128;-67
2023/03/31 05:04:37;;;;;;;;;;;;;;;16.52;44.12;99464.25;4969956;28;118673;-68
2023/03/31 05:07:03;;;;;;;;;;;;;;;16.53;44.12;99457.66;4960118;28;128127;-62
2023/03/31 05:09:29;;;;;;;;;;;;;;;16.56;43.89;99462.47;4959646;28;126850;-63
2023/03/31 05:11:56;;;;;;;;;;;;;;;16.62;44.04;99458.41;4989234;27;97823;-67
2023/03/31 05:14:22;;;;;;;;;;;;;;;16.68;43.94;99446.19;4991395;27;127199;-67
2023/03/31 05:16:48;;;;;;;;;;;;;;;16.73;43.78;99435.13;4959966;28;126430;-62
2023/03/31 05:19:14;;;;;;;;;;;;;;;16.77;43.86;99438.78;4961574;28;127823;-68
2023/03/31 05:21:39;;;;;;;;;;;;;;;16.79;43.79;99441.97;4966547;28;117321;-63
2023/03/31 05:24:06;;;;;;;;;;;;;;;16.81;43.80;99433.47;4965993;28;128139;-67
2023/03/31 05:26:32;;;;;;;;;;;;;;;16.82;43.81;99427.72;4962155;28;118029;-67
2023/03/31 05:28:57;;;;;;;;;;;;;;;16.84;43.94;99425.44;4963916;28;106864;-67
2023/03/31 05:31:23;;;;;;;;;;;;;;;16.89;43.90;99422.50;4961521;28;116531;-67
2023/03/31 05:33:49;;;;;;;;;;;;;;;16.90;43.86;99423.31;4958888;28;127537;-62
2023/03/31 05:36:15;;;;;;;;;;;;;;;16.91;43.71;99414.81;4966978;28;98720;-64
2023/03/31 05:38:42;;;;;;;;;;;;;;;16.97;43.74;99414.59;4961688;28;110138;-68
2023/03/31 05:41:08;;;;;;;;;;;;;;;17.02;43.69;99404.31;4971876;28;97770;-67
2023/03/31 05:43:35;;;;;;;;;;;;;;;17.07;43.77;99392.41;4959092;28;123276;-68
2023/03/31 05:46:01;;;;;;;;;;;;;;;17.12;43.80;99394.91;4963486;28;100732;-63
2023/03/31 05:48:27;;;;;;;;;;;;;;;17.18;43.54;99394.38;4964209;28;100911;-64
2023/03/31 05:50:57;;;;;;;;;;;;;;;17.26;43.50;99392.69;4965827;28;116838;-63
2023/03/31 05:53:24;;;;;;;;;;;;;;;17.32;43.41;99385.09;4965160;28;97904;-67
2023/03/31 05:55:54;;;;;;;;;;;;;;;17.37;43.61;99384.84;4961405;28;98814;-67
2023/03/31 05:58:20;;;;;;;;;;;;;;;17.41;43.36;99385.78;4964628;28;125424;-67
2023/03/31 06:00:46;;;;;;;;;;;;;;;17.43;43.50;99375.34;4975637;28;97787;-64
2023/03/31 06:03:12;;;;;;;;;;;;;;;17.47;43.45;99372.75;4968243;28;127010;-63
2023/03/31 06:05:40;;;;;;;;;;;;;;;17.50;43.49;99364.69;4965666;28;126197;-67
2023/03/31 06:08:06;;;;;;;;;;;;;;;17.51;43.38;99360.81;4963708;28;98097;-67
2023/03/31 06:10:32;;;;;;;;;;;;;;;17.51;43.59;99352.66;4966969;28;100801;-63
2023/03/31 06:12:58;;;;;;;;;;;;;;;17.50;43.44;99355.72;4998831;27;130227;-63
2023/03/31 06:15:24;;;;;;;;;;;;;;;17.52;43.55;99345.25;4965211;28;127538;-68
2023/03/31 06:17:50;;;;;;;;;;;;;;;17.60;43.36;99342.41;4971676;28;97787;-66
2023/03/31 06:20:16;;;;;;;;;;;;;;;17.70;43.48;99340.38;4974777;28;116502;-67
2023/03/31 06:22:42;;;;;;;;;;;;;;;17.81;43.35;99338.81;4964399;28;98076;-63
2023/03/31 06:25:08;;;;;;;;;;;;;;;17.93;43.23;99329.84;4966772;28;128325;-67
2023/03/31 06:27:34;;;;;;;;;;;;;;;17.99;43.11;99333.91;4965881;28;127975;-64
2023/03/31 06:30:00;;;;;;;;;;;;;;;18.03;43.28;99341.03;4962776;28;117617;-63
2023/03/31 06:32:26;;;;;;;;;;;;;;;18.05;43.18;99329.81;4961083;28;128854;-67
2023/03/31 06:34:52;;;;;;;;;;;;;;;18.07;43.32;99325.59;4965819;28;97993;-67
2023/03/31 06:37:18;;;;;;;;;;;;;;;18.12;43.16;99330.81;4976539;28;127269;-67
2023/03/31 06:39:43;;;;;;;;;;;;;;;18.12;43.21;99332.75;4962475;28;117752;-69
2023/03/31 06:42:10;;;;;;;;;;;;;;;18.12;43.34;99333.53;4965092;28;125844;-63
2023/03/31 06:44:36;;;;;;;;;;;;;;;18.15;43.21;99341.00;4966139;28;98791;-67
2023/03/31 06:47:02;;;;;;;;;;;;;;;18.33;43.25;99338.03;4965491;28;107572;-67
2023/03/31 06:49:27;;;;;;;;;;;;;;;18.48;42.84;99331.06;4963497;28;114095;-63
2023/03/31 06:51:53;;;;;;;;;;;;;;;18.66;42.74;99326.84;4967148;28;128269;-68
2023/03/31 06:54:19;;;;;;;;;;;;;;;18.85;42.77;99328.97;4967007;28;128185;-63
2023/03/31 06:56:45;;;;;;;;;;;;;;;18.94;42.82;99315.13;4976825;28;98319;-64
2023/03/31 06:59:11;;;;;;;;;;;;;;;19.03;42.64;99305.66;4965538;28;117341;-64
2023/03/31 07:01:37;;;;;;;;;;;;;;;19.25;42.54;99319.81;4965203;28;128635;-68
2023/03/31 07:04:03;;;;;;;;;;;;;;;19.51;42.34;99314.63;4965156;28;98245;-63
2023/03/31 07:06:30;;;;;;;;;;;;;;;19.80;42.08;99309.81;4966327;28;125196;-67
2023/03/31 07:08:55;;;;;;;;;;;;;;;20.03;42.10;99308.00;4965046;28;98734;-69
2023/03/31 07:11:21;;;;;;;;;;;;;;;20.19;42.08;99310.66;4965314;28;110549;-64
2023/03/31 07:13:47;;;;;;;;;;;;;;;20.19;42.13;99307.94;4965402;28;119763;-64
2023/03/31 07:16:13;;;;;;;;;;;;;;;20.20;42.25;99301.34;4977124;28;124502;-68
2023/03/31 07:18:40;;;;;;;;;;;;;;;20.25;42.37;99297.50;4964616;28;97770;-67
2023/03/31 07:21:06;;;;;;;;;;;;;;;20.32;42.39;99303.13;4967095;28;98890;-64
2023/03/31 07:23:33;;;;;;;;;;;;;;;20.43;42.22;99306.84;4965362;28;128474;-67
2023/03/31 07:26:01;;;;;;;;;;;;;;;20.59;42.18;99298.59;4969636;28;106230;-64
2023/03/31 07:28:27;;;;;;;;;;;;;;;20.79;42.04;99291.16;4965184;28;97949;-67
2023/03/31 07:30:53;;;;;;;;;;;;;;;20.95;41.98;99291.84;4967669;28;120383;-68
2023/03/31 07:33:19;;;;;;;;;;;;;;;21.04;41.98;99300.59;4976376;28;128008;-67
2023/03/31 07:35:45;;;;;;;;;;;;;;;21.04;42.10;99297.06;4964980;28;98016;-68
2023/03/31 07:38:11;;;;;;;;;;;;;;;20.86;42.37;99295.94;4969879;28;98027;-64
2023/03/31 07:40:37;;;;;;;;;;;;;;;20.84;42.23;99291.63;4966396;28;122415;-67
2023/03/31 07:43:03;;;;;;;;;;;;;;;20.81;42.50;99291.56;4965898;28;124202;-65
2023/03/31 07:45:29;;;;;;;;;;;;;;;20.64;42.67;99289.31;4965746;28;122868;-69
2023/03/31 07:47:55;;;;;;;;;;;;;;;20.49;42.98;99288.25;4963465;28;98048;-66
2023/03/31 07:50:22;;;;;;;;;;;;;;;20.55;42.91;99278.56;4964997;28;127952;-67
2023/03/31 07:52:48;;;;;;;;;;;;;;;20.72;42.53;99272.66;4974780;28;98615;-65
2023/03/31 07:55:14;;;;;;;;;;;;;;;20.98;42.36;99266.44;4965917;28;98543;-66
2023/03/31 07:57:40;;;;;;;;;;;;;;;21.30;42.05;99260.72;4967988;28;97883;-65
2023/03/31 08:00:09;;;;;;;;;;;;;;;21.72;41.79;99265.25;4965847;28;98462;-65
2023/03/31 08:02:35;;;;;;;;;;;;;;;21.82;41.74;99256.38;4967683;28;98958;-68
2023/03/31 08:05:01;;;;;;;;;;;;;;;21.94;41.90;99261.63;4967077;28;99484;-65
2023/03/31 08:07:29;;;;;;;;;;;;;;;21.96;41.76;99251.06;4967922;28;97745;-68
2023/03/31 08:09:55;;;;;;;;;;;;;;;22.12;41.76;99242.63;4965748;28;98253;-69
2023/03/31 08:12:21;;;;;;;;;;;;;;;22.32;41.60;99237.78;4970523;28;98877;-68
2023/03/31 08:14:47;;;;;;;;;;;;;;;22.62;41.48;99229.50;4964979;28;126021;-65
2023/03/31 08:17:13;;;;;;;;;;;;;;;23.05;41.26;99229.09;4974851;28;98276;-65
2023/03/31 08:19:39;;;;;;;;;;;;;;;22.89;41.41;99226.59;4963308;28;128748;-68
2023/03/31 08:22:05;;;;;;;;;;;;;;;22.86;41.49;99213.63;4964567;28;127379;-65
2023/03/31 08:24:31;;;;;;;;;;;;;;;23.07;41.42;99211.09;4965484;28;126057;-68
2023/03/31 08:26:57;;;;;;;;;;;;;;;23.39;41.30;99213.25;4964630;28;116748;-68
2023/03/31 08:29:23;;;;;;;;;;;;;;;23.35;41.34;99205.00;4968755;28;98266;-68
2023/03/31 08:31:49;;;;;;;;;;;;;;;23.45;41.52;99206.22;4967878;28;119227;-64
2023/03/31 08:34:15;;;;;;;;;;;;;;;23.56;41.24;99206.28;4966711;28;98183;-65
2023/03/31 08:36:41;;;;;;;;;;;;;;;23.52;41.73;99206.25;4975468;28;99212;-68
2023/03/31 08:39:07;;;;;;;;;;;;;;;23.23;42.02;99206.09;4969975;28;99641;-65
2023/03/31 08:41:41;;;;;;;;;;;;;;;22.96;42.24;99221.19;4953097;28;98284;-64
2023/03/31 08:44:11;;;;;;;;;;;;;;;22.69;42.50;99212.31;4962408;28;98047;-67
2023/03/31 08:46:37;;;;;;;;;;;;;;;22.51;42.65;99201.13;4999413;27;98020;-64
2023/03/31 08:49:03;;;;;;;;;;;;;;;22.45;42.75;99214.44;4962053;28;127747;-65
2023/03/31 08:51:37;;;;;;;;;;;;;;;22.41;42.66;99216.34;4982149;27;99560;-67
2023/03/31 08:54:37;;;;;;;;;;;;;;;22.28;42.80;99202.09;4992641;27;111537;-69
2023/03/31 08:57:03;;;;;;;;;;;;;;;22.14;42.83;99207.44;4955969;28;113701;-67
2023/03/31 08:59:33;;;;;;;;;;;;;;;22.09;42.97;99201.47;4968579;28;122221;-64
2023/03/31 09:02:02;;;;;;;;;;;;;;;22.13;42.68;99199.56;4966544;28;100381;-67
2023/03/31 09:04:50;;;;;;;;;;;;;;;22.22;42.48;99198.09;4967859;28;122086;-68
2023/03/31 09:07:16;;;;;;;;;;;;;;;22.72;41.88;99187.63;4954103;28;97984;-68
2023/03/31 09:09:55;;;;;;;;;;;;;;;23.10;41.75;99176.53;4963522;28;98929;-65
2023/03/31 09:12:25;;;;;;;;;;;;;;;23.31;41.40;99184.16;4970342;28;99092;-64
2023/03/31 09:15:00;;;;;;;;;;;;;;;23.70;41.47;99184.38;4981134;28;99615;-64
2023/03/31 09:17:47;;;;;;;;;;;;;;;23.48;41.68;99175.22;4964580;28;97727;-64
2023/03/31 09:20:18;;;;;;;;;;;;;;;23.30;42.19;99164.09;4953823;28;98957;-68
2023/03/31 09:22:49;;;;;;;;;;;;;;;23.47;41.78;99166.19;4979587;28;126755;-64
2023/03/31 09:25:18;;;;;;;;;;;;;;;23.60;41.52;99165.84;4960855;28;119687;-68
2023/03/31 09:27:46;;;;;;;;;;;;;;;23.49;42.11;99152.81;5005617;27;98016;-64
2023/03/31 09:30:17;;;;;;;;;;;;;;;23.42;41.92;99157.50;4976059;28;98247;-65
2023/03/31 09:32:43;;;;;;;;;;;;;;;23.36;42.19;99153.53;4972710;28;97843;-69
2023/03/31 09:35:24;;;;;;;;;;;;;;;23.25;42.06;99146.00;5004411;27;113782;-68
2023/03/31 09:37:50;;;;;;;;;;;;;;;23.25;42.38;99136.97;4971186;28;98893;-68
2023/03/31 09:40:18;;;;;;;;;;;;;;;23.29;42.24;99132.28;4958258;28;98595;-66
2023/03/31 09:42:46;;;;;;;;;;;;;;;23.23;42.32;99120.09;4971467;28;101686;-65
2023/03/31 09:45:18;;;;;;;;;;;;;;;23.17;42.25;99127.91;4974521;28;98015;-65
2023/03/31 09:47:46;;;;;;;;;;;;;;;23.14;42.25;99117.69;4969105;28;110414;-69
2023/03/31 09:50:12;;;;;;;;;;;;;;;23.17;42.41;99108.66;4980801;28;99080;-65
2023/03/31 09:52:43;;;;;;;;;;;;;;;23.30;42.12;99106.38;4967490;28;110419;-68
2023/03/31 09:55:28;;;;;;;;;;;;;;;23.39;42.04;99101.34;4972117;28;102854;-68
2023/03/31 09:57:54;;;;;;;;;;;;;;;23.41;42.09;99090.72;4960589;28;97943;-68
2023/03/31 10:00:21;;;;;;;;;;;;;;;23.22;42.17;99091.81;4963177;28;99025;-68
2023/03/31 10:02:53;;;;;;;;;;;;;;;23.01;42.45;99088.97;4962558;28;98275;-65
2023/03/31 10:05:57;;;;;;;;;;;;;;;22.86;42.66;99087.25;5001022;27;98065;-68
2023/03/31 10:08:45;;;;;;;;;;;;;;;22.75;42.87;99084.44;4963972;28;98008;-68
2023/03/31 10:11:11;;;;;;;;;;;;;;;22.69;42.72;99080.50;4993876;27;99096;-68
2023/03/31 10:13:43;;;;;;;;;;;;;;;22.89;42.41;99086.50;4977235;27;98578;-65
2023/03/31 10:16:12;;;;;;;;;;;;;;;23.24;41.97;99085.94;4964699;28;97999;-65
2023/03/31 10:18:39;;;;;;;;;;;;;;;23.37;42.07;99094.63;4966269;28;98347;-67
2023/03/31 10:21:06;;;;;;;;;;;;;;;23.38;42.00;99090.72;4958647;28;110186;-66
2023/03/31 10:23:33;;;;;;;;;;;;;;;23.34;42.00;99095.41;4974441;28;99370;-69
2023/03/31 10:26:00;;;;;;;;;;;;;;;23.30;42.24;99095.38;4966206;28;98156;-69
2023/03/31 10:28:25;;;;;;;;;;;;;;;23.28;42.32;99090.28;4964225;28;97847;-69
2023/03/31 10:30:53;;;;;;;;;;;;;;;23.25;42.25;99082.81;4973483;28;123995;-66
2023/03/31 10:33:26;;;;;;;;;;;;;;;23.24;42.21;99080.44;4981981;27;98252;-69
2023/03/31 10:35:56;;;;;;;;;;;;;;;23.25;42.59;99077.31;4964405;28;98730;-69
2023/03/31 10:38:41;;;;;;;;;;;;;;;23.25;42.59;99074.56;4993201;27;97964;-69
2023/03/31 10:41:07;;;;;;;;;;;;;;;23.24;42.45;99074.94;4976523;28;98981;-66
2023/03/31 10:43:40;;;;;;;;;;;;;;;23.23;42.34;99071.41;4947596;28;98446;-66
2023/03/31 10:46:06;;;;;;;;;;;;;;;23.21;42.46;99076.50;4961060;28;98188;-66
2023/03/31 10:48:33;;;;;;;;;;;;;;;23.20;42.54;99068.66;4962583;28;97938;-66
2023/03/31 10:51:03;;;;;;;;;;;;;;;23.22;42.72;99066.28;4961097;28;99122;-69
2023/03/31 10:53:29;;;;;;;;;;;;;;;23.26;42.50;99056.09;4959572;28;113580;-66
2023/03/31 10:56:18;;;;;;;;;;;;;;;23.35;42.65;99056.56;4957594;28;98230;-70
2023/03/31 10:59:22;;;;;;;;;;;;;;;23.30;42.71;99051.41;4964957;27;99752;-69
2023/03/31 11:02:04;;;;;;;;;;;;;;;23.10;42.94;99052.88;4967337;28;98181;-71
2023/03/31 11:04:37;;;;;;;;;;;;;;;22.91;42.93;99042.97;4962030;28;98112;-65
2023/03/31 11:07:17;;;;;;;;;;;;;;;22.81;43.18;99041.72;4993051;27;101455;-66
2023/03/31 11:10:18;;;;;;;;;;;;;;;22.71;43.01;99029.50;4970220;28;116078;-67
2023/03/31 11:13:20;;;;;;;;;;;;;;;22.52;43.30;99027.03;4934693;28;98406;-66
2023/03/31 11:16:11;;;;;;;;;;;;;;;22.43;43.39;99016.38;4954517;28;98125;-66
2023/03/31 11:19:04;;;;;;;;;;;;;;;22.42;43.40;99005.78;4972084;28;98030;-69
2023/03/31 11:21:48;;;;;;;;;;;;;;;22.52;43.04;99002.34;4958855;28;97732;-70
2023/03/31 11:24:51;;;;;;;;;;;;;;;22.78;42.64;98996.56;4959141;28;104128;-65
2023/03/31 11:27:22;;;;;;;;;;;;;;;23.05;42.64;98995.56;4956501;28;98362;-65
2023/03/31 11:29:51;;;;;;;;;;;;;;;23.19;42.21;98999.16;4962618;28;101290;-69
2023/03/31 11:32:25;;;;;;;;;;;;;;;23.32;42.24;98996.84;4936005;28;97806;-66
2023/03/31 11:34:57;;;;;;;;;;;;;;;23.47;42.28;98986.69;4995148;27;98485;-69
2023/03/31 11:37:45;;;;;;;;;;;;;;;23.57;42.00;98985.13;5003833;27;124413;-66
2023/03/31 11:40:20;;;;;;;;;;;;;;;23.56;42.23;98978.84;4986015;27;98049;-66
2023/03/31 11:42:49;;;;;;;;;;;;;;;23.44;42.57;98971.75;4960276;28;97882;-69
2023/03/31 11:45:28;;;;;;;;;;;;;;;23.23;42.69;98985.44;4958584;28;98500;-66
2023/03/31 11:47:56;;;;;;;;;;;;;;;23.02;43.03;98975.91;4943057;28;108630;-66
2023/03/31 11:50:26;;;;;;;;;;;;;;;22.82;43.33;98974.63;4963232;28;98136;-65
2023/03/31 11:53:19;;;;;;;;;;;;;;;22.66;43.32;98968.66;4965292;28;97993;-69
2023/03/31 11:55:47;;;;;;;;;;;;;;;22.54;43.30;98967.03;4994105;27;98922;-69
2023/03/31 11:58:22;;;;;;;;;;;;;;;22.44;43.41;98965.00;4960049;28;98064;-65
2023/03/31 12:00:52;;;;;;;;;;;;;;;22.33;43.50;98955.94;4986668;27;123981;-69
2023/03/31 12:03:44;;;;;;;;;;;;;;;22.27;43.54;98961.75;4942469;28;98152;-66
2023/03/31 12:06:16;;;;;;;;;;;;;;;22.17;43.56;98951.50;4957794;28;98480;-66
2023/03/31 12:08:48;;;;;;;;;;;;;;;22.11;43.49;98949.47;4962861;28;98870;-66
2023/03/31 12:11:26;;;;;;;;;;;;;;;22.01;43.52;98946.28;4966647;28;121541;-69
2023/03/31 12:14:12;;;;;;;;;;;;;;;21.86;43.68;98941.84;4959576;28;98412;-65
2023/03/31 12:16:41;;;;;;;;;;;;;;;21.73;43.82;98935.88;4960119;28;127379;-66
2023/03/31 12:19:15;;;;;;;;;;;;;;;21.69;43.53;98937.78;4971029;28;99215;-69
2023/03/31 12:21:43;;;;;;;;;;;;;;;21.69;43.62;98934.22;4957722;28;97937;-69
2023/03/31 12:24:12;;;;;;;;;;;;;;;21.65;43.64;98925.97;4972442;28;99665;-70
2023/03/31 12:27:02;;;;;;;;;;;;;;;21.58;43.69;98925.16;4942228;28;98166;-70
2023/03/31 12:29:33;;;;;;;;;;;;;;;21.51;43.60;98920.38;4955806;28;98566;-70
2023/03/31 12:32:02;;;;;;;;;;;;;;;21.44;43.70;98921.09;4989723;27;99720;-65
2023/03/31 12:34:28;;;;;;;;;;;;;;;21.37;43.67;98914.75;4971702;28;98350;-69
2023/03/31 12:37:32;;;;;;;;;;;;;;;21.26;43.76;98912.69;4957473;28;127840;-70
2023/03/31 12:40:13;;;;;;;;;;;;;;;21.18;43.75;98918.44;4941116;28;98690;-68
2023/03/31 12:42:43;;;;;;;;;;;;;;;21.09;43.72;98908.56;4951567;28;98763;-70
2023/03/31 12:45:12;;;;;;;;;;;;;;;21.02;43.82;98913.19;4953487;28;97776;-66
2023/03/31 12:47:58;;;;;;;;;;;;;;;20.95;43.91;98911.16;4987236;27;127422;-65
2023/03/31 12:51:01;;;;;;;;;;;;;;;20.86;44.02;98907.13;4954180;28;118785;-69
2023/03/31 12:53:33;;;;;;;;;;;;;;;20.76;43.97;98906.63;4942916;28;98552;-65
2023/03/31 12:55:59;;;;;;;;;;;;;;;20.71;43.95;98904.22;4959283;28;101386;-69
2023/03/31 12:58:28;;;;;;;;;;;;;;;20.65;43.92;98900.22;4954662;28;98192;-69
2023/03/31 13:01:13;;;;;;;;;;;;;;;20.60;43.99;98892.38;4958768;28;99508;-66
2023/03/31 13:03:41;;;;;;;;;;;;;;;20.57;43.91;98887.63;4960903;28;98627;-66